Time;durP1;ratioP1;P1;durP2;ratioP2;P2;SDS_P1;SDS_P2;PMS_P1;PMS_P2;Temp;Humidity;BMP_temperature;BMP_pressure;BME280_temperature;BME280_humidity;BME280_pressure;Samples;Min_cycle;Max_cycle;Signal;HPM_P1;HPM_P2
2023/12/12 00:00:44;;;;;;;10.20;3.05;;;;;;;9.95;87.37;98647.53;7207230;40;20337;31
2023/12/12 00:06:21;;;;;;;14.17;3.80;;;;;;;9.92;87.76;98639.78;7179276;40;20258;31
2023/12/12 00:11:57;;;;;;;16.33;4.70;;;;;;;9.92;88.17;98639.78;7162655;40;20251;31
2023/12/12 00:17:17;;;;;;;13.43;3.50;;;;;;;9.98;87.68;98645.50;7190317;40;21406;31
2023/12/12 00:22:53;;;;;;;14.40;3.45;;;;;;;9.98;87.94;98646.34;7229859;40;20261;31
2023/12/12 00:28:29;;;;;;;17.57;3.77;;;;;;;9.99;88.51;98649.88;7175507;40;20393;31
2023/12/12 00:34:05;;;;;;;16.00;4.10;;;;;;;10.03;88.00;98659.25;7173894;40;20243;31
2023/12/12 00:39:41;;;;;;;14.25;3.60;;;;;;;10.01;88.22;98661.28;7131975;40;20254;31
2023/12/12 00:45:16;;;;;;;12.37;3.57;;;;;;;10.10;88.00;98662.91;7125820;40;20393;31
2023/12/12 00:50:52;;;;;;;16.20;4.20;;;;;;;10.05;88.54;98655.38;7101177;41;20324;31
2023/12/12 00:56:28;;;;;;;15.90;3.83;;;;;;;10.02;88.59;98646.81;7107072;40;20478;31
2023/12/12 01:02:02;;;;;;;16.80;3.67;;;;;;;10.05;89.07;98647.28;7093632;40;20244;31
2023/12/12 01:07:37;;;;;;;15.95;3.95;;;;;;;10.02;88.96;98636.03;7166004;40;20512;31
2023/12/12 01:13:11;;;;;;;12.95;3.15;;;;;;;10.03;88.85;98630.50;7137748;41;20229;31
2023/12/12 01:18:32;;;;;;;14.85;3.30;;;;;;;10.05;89.06;98627.63;7183364;40;20258;31
2023/12/12 01:24:07;;;;;;;15.90;3.40;;;;;;;10.01;88.64;98615.50;7229440;40;20246;31
2023/12/12 01:29:43;;;;;;;12.15;3.40;;;;;;;9.99;89.00;98604.94;7219250;40;20251;31
2023/12/12 01:35:03;;;;;;;14.07;3.27;;;;;;;10.02;88.71;98607.28;7200677;40;20360;31
2023/12/12 01:40:23;;;;;;;15.75;3.10;;;;;;;10.04;89.38;98620.56;6979666;40;20251;31
2023/12/12 01:45:59;;;;;;;13.95;2.80;;;;;;;9.96;89.17;98616.88;7213320;40;20275;31
2023/12/12 01:51:34;;;;;;;12.00;3.57;;;;;;;9.93;89.51;98614.56;7229378;40;20376;31
2023/12/12 01:57:09;;;;;;;18.70;3.60;;;;;;;9.90;89.42;98611.38;7257778;40;20250;31
2023/12/12 02:02:45;;;;;;;14.03;3.73;;;;;;;9.87;89.93;98614.44;7199141;40;20378;31
2023/12/12 02:08:20;;;;;;;13.17;3.30;;;;;;;9.86;89.78;98594.75;7155441;40;20246;31
2023/12/12 02:13:55;;;;;;;19.30;3.35;;;;;;;9.85;89.62;98603.00;7159527;40;20262;31
2023/12/12 02:19:32;;;;;;;14.00;2.85;;;;;;;9.84;89.84;98606.69;7150252;40;20373;31
2023/12/12 02:25:07;;;;;;;15.57;3.67;;;;;;;9.81;89.72;98605.22;7208365;40;20376;31
2023/12/12 02:30:27;;;;;;;16.40;3.60;;;;;;;9.80;89.96;98600.00;7201638;40;20246;31
2023/12/12 02:36:02;;;;;;;11.50;3.10;;;;;;;9.79;90.28;98607.22;7206704;40;20260;31
2023/12/12 02:41:37;;;;;;;15.90;3.43;;;;;;;9.79;90.12;98601.84;7185663;40;20380;31
2023/12/12 02:46:58;;;;;;;11.15;3.03;;;;;;;9.83;90.22;98578.09;7188883;40;20242;31
2023/12/12 02:52:34;;;;;;;13.97;3.43;;;;;;;9.80;89.53;98584.69;7221435;40;20246;31
2023/12/12 02:58:10;;;;;;;11.75;3.45;;;;;;;9.74;89.47;98553.09;7216905;40;20247;31
2023/12/12 03:03:30;;;;;;;11.60;3.22;;;;;;;9.73;89.33;98555.97;7211242;40;20271;31
2023/12/12 03:08:51;;;;;;;13.67;2.90;;;;;;;9.64;89.34;98554.34;7234415;40;20317;31
2023/12/12 03:14:28;;;;;;;11.17;3.10;;;;;;;9.49;89.31;98544.31;7252965;40;20241;31
2023/12/12 03:20:03;;;;;;;12.07;2.93;;;;;;;9.52;89.85;98551.22;7162226;40;20305;31
2023/12/12 03:25:38;;;;;;;11.75;2.65;;;;;;;9.52;88.87;98537.78;7159333;40;20273;31
2023/12/12 03:31:14;;;;;;;10.20;2.60;;;;;;;9.49;88.71;98533.56;7170919;40;20379;31
2023/12/12 03:36:49;;;;;;;13.60;3.00;;;;;;;9.48;89.33;98541.78;7134577;40;20388;31
2023/12/12 03:42:09;;;;;;;12.07;2.77;;;;;;;9.36;89.33;98521.69;7146190;40;20409;31
2023/12/12 03:47:45;;;;;;;10.07;2.60;;;;;;;9.24;88.62;98520.41;7164760;40;20290;31
2023/12/12 03:53:05;;;;;;;8.00;2.53;;;;;;;9.15;88.38;98526.84;7165652;40;20330;31
2023/12/12 03:58:41;;;;;;;9.03;2.40;;;;;;;8.95;88.43;98508.41;7172277;40;20243;31
2023/12/12 04:04:15;;;;;;;9.00;2.60;;;;;;;8.47;89.15;98516.59;7260148;40;20238;31
2023/12/12 04:09:50;;;;;;;15.00;3.25;;;;;;;8.26;90.06;98538.56;7264893;40;20289;31
2023/12/12 04:15:25;;;;;;;11.80;2.65;;;;;;;8.44;90.16;98530.37;7265065;40;20378;31
2023/12/12 04:20:59;;;;;;;8.00;2.50;;;;;;;8.48;89.65;98531.69;7230366;40;20392;31
2023/12/12 04:26:34;;;;;;;10.60;2.70;;;;;;;8.36;90.62;98530.37;7200098;40;20261;31
2023/12/12 04:32:09;;;;;;;10.30;2.80;;;;;;;8.40;90.32;98535.25;7181591;40;20255;31
2023/12/12 04:37:45;;;;;;;13.07;3.10;;;;;;;8.46;90.59;98514.94;7216741;40;20242;31
2023/12/12 04:43:20;;;;;;;10.50;2.40;;;;;;;8.48;90.97;98513.75;7226584;40;20416;31
2023/12/12 04:54:01;;;;;;;13.95;3.20;;;;;;;8.67;90.61;98509.00;7177836;40;20289;31
2023/12/12 05:04:25;;;;;;;8.97;3.00;;;;;;;8.92;90.44;98508.78;7234341;40;20286;31
2023/12/12 05:15:04;;;;;;;10.97;3.17;;;;;;;8.97;90.90;98494.81;7287263;39;20260;31
2023/12/12 05:20:39;;;;;;;9.93;3.17;;;;;;;8.98;91.89;98500.03;7300534;40;20256;31
2023/12/12 05:26:00;;;;;;;12.10;3.97;;;;;;;9.03;91.40;98478.00;7222519;40;20280;31
2023/12/12 05:31:33;;;;;;;17.50;4.27;;;;;;;9.05;91.55;98475.97;7195547;40;20246;31
2023/12/12 05:41:58;;;;;;;13.20;3.70;;;;;;;9.04;91.90;98471.59;7214028;40;20281;31
2023/12/12 05:47:35;;;;;;;12.45;3.60;;;;;;;9.00;92.49;98483.72;7237367;40;20257;31
2023/12/12 05:58:14;;;;;;;15.42;3.02;;;;;;;8.97;93.00;98473.31;7298675;39;20340;31
2023/12/12 06:03:48;;;;;;;9.50;2.85;;;;;;;9.03;92.64;98470.78;7258867;40;20261;31
2023/12/12 06:09:23;;;;;;;9.67;3.03;;;;;;;9.08;92.64;98455.97;7249753;40;20492;31
2023/12/12 06:14:44;;;;;;;12.10;3.13;;;;;;;9.11;93.19;98452.94;7193205;40;20260;31
2023/12/12 06:20:21;;;;;;;11.27;3.60;;;;;;;9.04;93.58;98407.91;7189099;40;21343;31
2023/12/12 06:25:56;;;;;;;14.23;3.80;;;;;;;9.11;93.69;98412.59;7192575;40;20357;31
2023/12/12 06:31:31;;;;;;;10.40;3.20;;;;;;;9.18;93.13;98410.88;7206692;40;20436;31
2023/12/12 06:42:09;;;;;;;18.00;3.53;;;;;;;9.18;93.15;98405.50;7253854;40;20272;31
2023/12/12 06:47:30;;;;;;;16.40;3.57;;;;;;;9.17;93.78;98407.34;7242801;40;20285;31
2023/12/12 06:53:05;;;;;;;13.85;3.60;;;;;;;9.14;93.79;98412.25;7244258;40;20241;31
2023/12/12 06:58:39;;;;;;;13.40;3.37;;;;;;;9.07;94.32;98411.28;7222094;40;20376;31
2023/12/12 07:04:14;;;;;;;13.40;3.37;;;;;;;9.12;94.10;98417.81;7185485;40;20269;31
2023/12/12 07:09:49;;;;;;;15.80;3.70;;;;;;;9.10;93.85;98409.06;7148824;40;20274;31
2023/12/12 07:15:21;;;;;;;19.95;3.65;;;;;;;9.12;94.03;98415.13;7129743;40;20364;31
2023/12/12 07:25:46;;;;;;;14.87;3.93;;;;;;;9.24;93.98;98437.91;7247672;40;20253;31
2023/12/12 07:36:24;;;;;;;13.28;5.36;;;;;;;9.20;94.60;98401.63;7292937;39;20245;31
2023/12/12 07:41:45;;;;;;;17.65;4.95;;;;;;;9.25;94.92;98411.84;7274914;40;20268;31
2023/12/12 07:47:06;;;;;;;22.37;11.17;;;;;;;9.26;94.89;98398.22;7275686;40;20807;31
2023/12/12 07:52:42;;;;;;;17.53;8.80;;;;;;;9.27;94.39;98382.91;7276829;40;20264;31
2023/12/12 07:58:17;;;;;;;18.85;9.15;;;;;;;9.28;95.03;98373.84;7266689;40;20342;31
2023/12/12 08:03:38;;;;;;;18.25;6.75;;;;;;;9.20;95.81;98379.28;7195392;40;20267;31
2023/12/12 08:09:15;;;;;;;14.00;6.65;;;;;;;9.10;96.64;98351.78;7198658;40;20437;31
2023/12/12 08:14:35;;;;;;;23.97;6.50;;;;;;;9.08;96.12;98362.72;7233846;40;20256;31
2023/12/12 08:19:55;;;;;;;19.50;7.30;;;;;;;9.08;96.48;98367.28;7231977;40;20260;31
2023/12/12 08:25:27;;;;;;;24.83;6.80;;;;;;;9.11;96.18;98389.25;7046359;40;20275;31
2023/12/12 08:31:01;;;;;;;26.20;7.00;;;;;;;9.14;95.74;98385.34;7266186;40;20264;31
2023/12/12 08:36:22;;;;;;;15.47;6.83;;;;;;;9.15;96.23;98374.44;7217798;40;20258;31
2023/12/12 08:41:58;;;;;;;21.40;10.07;;;;;;;9.17;95.77;98367.00;7235407;40;20241;31
2023/12/12 08:47:32;;;;;;;25.05;8.80;;;;;;;9.18;95.20;98355.25;7206906;40;20289;31
2023/12/12 08:58:12;;;;;;;23.17;10.10;;;;;;;9.24;95.42;98346.47;7144468;40;20279;31
2023/12/12 09:03:47;;;;;;;30.40;10.30;;;;;;;9.24;95.39;98333.03;7130674;40;20259;31
2023/12/12 09:09:23;;;;;;;23.37;10.13;;;;;;;9.28;95.52;98330.81;7146218;40;20322;31
2023/12/12 09:14:59;;;;;;;26.40;10.85;;;;;;;9.28;95.41;98328.12;7153360;40;20364;31
2023/12/12 09:20:34;;;;;;;22.23;9.47;;;;;;;9.20;96.50;98325.50;7228216;40;20261;31
2023/12/12 09:26:09;;;;;;;23.10;11.93;;;;;;;9.25;96.21;98309.69;7207407;40;20247;31
2023/12/12 09:31:45;;;;;;;29.10;12.67;;;;;;;9.30;96.11;98301.91;7166416;40;20429;31
2023/12/12 09:37:05;;;;;;;24.87;10.70;;;;;;;9.37;95.97;98294.78;7138587;40;20240;31
2023/12/12 09:42:39;;;;;;;20.75;9.10;;;;;;;9.36;96.40;98272.44;7120177;40;20263;31
2023/12/12 09:48:15;;;;;;;16.06;8.16;;;;;;;9.35;95.96;98265.38;7094025;40;20277;31
2023/12/12 09:53:50;;;;;;;15.40;8.00;;;;;;;9.30;96.81;98270.47;7113405;40;20266;31
2023/12/12 09:59:22;;;;;;;13.43;8.13;;;;;;;9.39;96.48;98269.38;7176816;40;20252;31
2023/12/12 10:10:05;;;;;;;11.30;7.63;;;;;;;9.43;96.11;98221.47;7156364;40;20637;31
2023/12/12 10:20:41;;;;;;;10.80;6.43;;;;;;;9.44;96.26;98225.78;7241546;40;20343;31
2023/12/12 10:26:15;;;;;;;12.10;6.60;;;;;;;9.44;96.79;98213.19;7220650;40;20315;31
2023/12/12 10:31:48;;;;;;;12.57;7.17;;;;;;;9.46;97.02;98195.03;7205721;40;20224;31
2023/12/12 10:37:23;;;;;;;12.23;7.90;;;;;;;9.42;96.99;98182.13;7158322;40;20267;31
2023/12/12 10:42:59;;;;;;;15.33;8.37;;;;;;;9.38;97.67;98167.38;7158288;40;20311;31
2023/12/12 10:48:34;;;;;;;79.30;51.70;;;;;;;9.35;97.60;98157.81;7108716;40;20240;31
2023/12/12 10:54:09;;;;;;;27.97;18.83;;;;;;;9.35;98.13;98133.59;7138463;40;20239;31
2023/12/12 10:59:43;;;;;;;21.15;10.65;;;;;;;9.30;98.84;98100.25;7148915;40;20259;31
2023/12/12 11:05:18;;;;;;;17.90;12.20;;;;;;;9.31;98.88;98099.19;7103354;40;20454;31
2023/12/12 11:10:51;;;;;;;21.90;12.90;;;;;;;9.32;99.50;98112.47;7126477;40;20383;31
2023/12/12 11:16:27;;;;;;;18.00;10.13;;;;;;;9.36;99.76;98102.19;7151571;40;20243;31
2023/12/12 11:22:03;;;;;;;14.20;10.00;;;;;;;9.40;99.93;98093.56;7175249;40;20269;31
2023/12/12 11:32:42;;;;;;;14.73;8.43;;;;;;;9.45;99.91;98085.75;7206604;40;20277;31
2023/12/12 11:43:33;;;;;;;14.05;9.75;;;;;;;9.52;100.00;98069.72;7211804;40;20272;31
2023/12/12 11:49:09;;;;;;;15.85;11.05;;;;;;;9.57;100.00;98064.59;7251561;40;20481;31
2023/12/12 11:54:29;;;;;;;10.97;7.97;;;;;;;9.66;100.00;98033.03;7221414;40;20372;31
2023/12/12 12:00:05;;;;;;;10.75;8.80;;;;;;;9.68;99.90;98025.63;7197627;40;20242;31
2023/12/12 12:05:41;;;;;;;10.30;7.15;;;;;;;9.68;100.00;97993.34;7184878;40;20587;31
2023/12/12 12:11:16;;;;;;;6.30;5.45;;;;;;;9.73;100.00;97937.09;7196440;40;20476;31
2023/12/12 12:16:48;;;;;;;5.83;4.77;;;;;;;9.74;100.00;97920.75;7156582;40;20305;31
2023/12/12 12:22:24;;;;;;;3.40;2.83;;;;;;;9.79;100.00;97931.75;7137848;40;20305;31
2023/12/12 12:28:03;;;;;;;4.43;3.17;;;;;;;9.87;100.00;97955.03;7114045;40;20264;31
2023/12/12 12:33:34;;;;;;;3.70;3.20;;;;;;;9.96;100.00;97953.84;7153893;40;20251;31
2023/12/12 12:39:10;;;;;;;4.25;2.85;;;;;;;10.06;100.00;97948.16;7118018;40;20386;31
2023/12/12 12:44:47;;;;;;;2.70;2.50;;;;;;;10.15;100.00;97938.91;7094297;40;20403;31
2023/12/12 12:50:22;;;;;;;2.85;2.10;;;;;;;10.24;100.00;97925.16;7108000;40;20419;31
2023/12/12 12:55:59;;;;;;;2.63;2.30;;;;;;;10.33;100.00;97918.59;7122158;40;20397;31
2023/12/12 13:01:33;;;;;;;2.75;2.20;;;;;;;10.45;100.00;97932.34;7183397;40;20308;31
2023/12/12 13:07:08;;;;;;;3.00;2.20;;;;;;;10.56;100.00;97933.66;7215837;40;20253;31
2023/12/12 13:12:44;;;;;;;3.57;2.90;;;;;;;10.67;100.00;97928.53;7127853;40;20322;31
2023/12/12 13:18:19;;;;;;;4.07;3.10;;;;;;;10.75;100.00;97933.75;7111199;40;20353;31
2023/12/12 13:23:38;;;;;;;3.77;2.50;;;;;;;10.82;100.00;97920.34;7106630;40;20252;31
2023/12/12 13:29:16;;;;;;;3.27;2.00;;;;;;;10.85;100.00;97901.06;7173583;40;20345;31
2023/12/12 13:34:37;;;;;;;3.00;2.23;;;;;;;10.93;100.00;97900.06;7162024;40;20243;31
2023/12/12 13:40:12;;;;;;;3.30;2.20;;;;;;;10.96;100.00;97900.50;7182017;40;20354;31
2023/12/12 13:45:48;;;;;;;17.13;9.17;;;;;;;10.97;100.00;97901.34;7197903;40;20321;31
2023/12/12 13:51:08;;;;;;;20.67;13.83;;;;;;;11.03;100.00;97905.91;7192578;40;20273;31
2023/12/12 13:56:44;;;;;;;20.50;13.10;;;;;;;11.06;100.00;97913.59;7228961;40;20239;31
2023/12/12 14:02:18;;;;;;;8.70;6.77;;;;;;;11.03;100.00;97930.19;7206026;40;20318;31
2023/12/12 14:07:39;;;;;;;5.95;5.20;;;;;;;11.05;100.00;97926.25;7195148;40;20263;31
2023/12/12 14:13:00;;;;;;;7.35;5.00;;;;;;;11.03;100.00;97914.84;7230188;40;20464;31
2023/12/12 14:18:36;;;;;;;3.10;2.60;;;;;;;11.00;100.00;97917.09;7232584;40;20387;31
2023/12/12 14:24:11;;;;;;;3.10;2.80;;;;;;;11.02;100.00;97899.69;7227343;40;20352;31
2023/12/12 14:29:46;;;;;;;5.13;4.63;;;;;;;10.99;100.00;97883.91;7196278;40;20378;31
2023/12/12 14:35:23;;;;;;;2.80;2.40;;;;;;;11.02;100.00;97879.97;7146972;40;20248;31
2023/12/12 14:40:58;;;;;;;3.10;2.80;;;;;;;11.03;100.00;97887.03;7198614;40;20258;31
2023/12/12 14:46:19;;;;;;;16.73;11.30;;;;;;;10.95;100.00;97882.66;7237759;40;20249;31
2023/12/12 14:51:52;;;;;;;23.60;17.57;;;;;;;10.88;100.00;97876.41;7242947;40;20241;31
2023/12/12 14:57:10;;;;;;;23.47;15.57;;;;;;;10.87;100.00;97855.03;7051161;40;20238;31
2023/12/12 15:02:31;;;;;;;12.63;10.53;;;;;;;10.87;100.00;97860.44;7251723;40;20269;31
2023/12/12 15:08:07;;;;;;;9.27;8.23;;;;;;;10.80;100.00;97861.22;7256646;40;20257;31
2023/12/12 15:13:42;;;;;;;15.97;13.17;;;;;;;10.81;100.00;97846.72;7193429;40;20253;31
2023/12/12 15:19:17;;;;;;;10.50;9.20;;;;;;;10.77;100.00;97861.63;7166378;40;20243;31
2023/12/12 15:24:53;;;;;;;8.27;7.47;;;;;;;10.68;100.00;97843.97;7171981;40;20252;31
2023/12/12 15:30:14;;;;;;;7.40;6.70;;;;;;;10.66;100.00;97846.03;7158225;40;20237;31
2023/12/12 15:35:33;;;;;;;8.15;7.35;;;;;;;10.63;100.00;97854.53;7168910;40;20385;31
2023/12/12 15:41:09;;;;;;;10.35;8.60;;;;;;;10.60;100.00;97846.00;7185855;40;20346;31
2023/12/12 15:46:30;;;;;;;14.40;12.70;;;;;;;10.63;100.00;97827.56;7193764;40;20266;31
2023/12/12 15:51:48;;;;;;;29.07;21.20;;;;;;;10.66;100.00;97815.59;7158280;40;20564;31
2023/12/12 16:02:27;;;;;;;12.40;10.37;;;;;;;10.63;100.00;97816.78;7216710;40;20417;31
2023/12/12 16:07:47;;;;;;;14.30;10.43;;;;;;;10.64;100.00;97833.81;7190853;40;20266;31
2023/12/12 16:13:23;;;;;;;15.70;11.70;;;;;;;10.62;100.00;97827.78;7223636;40;20249;31
2023/12/12 16:18:59;;;;;;;14.45;10.90;;;;;;;10.59;100.00;97802.06;7218815;40;20250;31
2023/12/12 16:24:16;;;;;;;14.40;11.50;;;;;;;10.65;100.00;97789.66;7253781;40;20288;31
2023/12/12 16:34:55;;;;;;;16.93;13.67;;;;;;;10.72;100.00;97774.34;7273004;40;20266;31
2023/12/12 16:45:19;;;;;;;25.35;17.80;;;;;;;10.84;100.00;97781.63;7251688;39;20670;31
2023/12/12 16:50:56;;;;;;;23.35;16.10;;;;;;;10.83;100.00;97780.00;7298674;39;20244;31
2023/12/12 16:56:17;;;;;;;23.53;17.60;;;;;;;10.87;100.00;97776.88;7241956;40;20245;31
2023/12/12 17:01:36;;;;;;;39.00;24.50;;;;;;;10.88;100.00;97771.28;7221933;40;20268;31
2023/12/12 17:12:21;;;;;;;12.60;10.90;;;;;;;10.87;100.00;97766.94;7238951;40;20279;31
2023/12/12 17:17:53;;;;;;;14.25;9.35;;;;;;;10.96;100.00;97768.41;7242873;40;20478;31
2023/12/12 17:23:28;;;;;;;9.73;7.67;;;;;;;11.02;100.00;97754.09;7240352;40;20384;31
2023/12/12 17:29:04;;;;;;;10.27;6.87;;;;;;;10.99;100.00;97757.22;7219334;40;20246;31
2023/12/12 17:34:39;;;;;;;13.20;9.00;;;;;;;11.00;100.00;97748.09;7172355;40;20297;31
2023/12/12 17:39:56;;;;;;;10.05;7.95;;;;;;;11.04;100.00;97753.91;7145956;40;20265;31
2023/12/12 17:50:38;;;;;;;8.83;7.93;;;;;;;10.99;100.00;97745.59;7215284;40;20265;31
2023/12/12 18:01:18;;;;;;;7.10;6.40;;;;;;;10.95;100.00;97730.84;7242903;40;20270;31
2023/12/12 18:11:59;;;;;;;6.87;5.97;;;;;;;10.86;100.00;97727.53;7202032;40;20483;31
2023/12/12 18:17:37;;;;;;;7.15;6.45;;;;;;;10.87;100.00;97728.34;7219463;40;20258;31
2023/12/12 18:23:11;;;;;;;17.93;12.40;;;;;;;10.85;100.00;97733.94;7207271;40;20288;31
2023/12/12 18:28:47;;;;;;;36.77;24.57;;;;;;;10.84;100.00;97730.41;7197169;40;20297;31
2023/12/12 18:34:08;;;;;;;31.10;21.80;;;;;;;10.87;100.00;97737.28;7189043;40;20247;31
2023/12/12 18:39:44;;;;;;;60.73;47.90;;;;;;;10.83;100.00;97731.47;7219782;40;20309;31
2023/12/12 18:45:21;;;;;;;16.05;13.80;;;;;;;10.82;100.00;97726.28;7178219;40;20247;31
2023/12/12 18:50:42;;;;;;;11.20;10.10;;;;;;;10.83;100.00;97730.63;7167595;40;20284;31
2023/12/12 18:55:58;;;;;;;12.23;10.80;;;;;;;10.83;100.00;97733.34;7176451;40;20374;31
2023/12/12 19:06:39;;;;;;;14.00;10.10;;;;;;;10.83;100.00;97704.53;7205947;40;20344;31
2023/12/12 19:17:04;;;;;;;30.60;21.10;;;;;;;10.84;100.00;97710.72;7292129;39;20405;31
2023/12/12 19:27:46;;;;;;;12.60;9.70;;;;;;;10.80;100.00;97694.13;7250669;40;20274;31
2023/12/12 19:38:10;;;;;;;9.53;8.17;;;;;;;10.82;100.00;97681.28;7232210;40;20274;31
2023/12/12 19:48:51;;;;;;;11.43;9.33;;;;;;;10.80;100.00;97683.34;7267222;40;20275;31
2023/12/12 19:54:13;;;;;;;13.87;9.47;;;;;;;10.80;100.00;97726.47;7275895;39;20245;31
2023/12/12 19:59:34;;;;;;;3.03;2.37;;;;;;;10.81;100.00;97741.62;7261733;40;20256;31
2023/12/12 20:05:09;;;;;;;1.77;1.47;;;;;;;10.77;100.00;97744.91;7233645;40;20324;31
2023/12/12 20:10:32;;;;;;;1.70;1.27;;;;;;;10.80;100.00;97733.72;7176335;40;20243;31
2023/12/12 20:16:05;;;;;;;2.60;2.07;;;;;;;10.75;100.00;97728.13;7192466;40;20332;31
2023/12/12 20:21:42;;;;;;;1.50;1.20;;;;;;;10.68;100.00;97711.94;7167010;40;20369;31
2023/12/12 20:27:18;;;;;;;2.10;1.67;;;;;;;10.67;100.00;97709.44;7153194;40;20270;31
2023/12/12 20:37:56;;;;;;;2.10;1.40;;;;;;;10.60;100.00;97676.28;7184867;40;20293;31
2023/12/12 20:48:37;;;;;;;1.70;1.07;;;;;;;10.56;100.00;97678.56;7244919;39;20257;31
2023/12/12 20:59:17;;;;;;;1.80;1.40;;;;;;;10.49;100.00;97669.59;7281229;39;20271;31
2023/12/12 21:04:54;;;;;;;1.87;1.23;;;;;;;10.46;100.00;97690.75;7219141;40;20262;31
2023/12/12 21:10:15;;;;;;;1.60;1.10;;;;;;;10.41;100.00;97688.66;7198560;40;20289;31
2023/12/12 21:15:51;;;;;;;1.40;1.10;;;;;;;10.33;100.00;97680.75;7197671;40;20240;31
2023/12/12 21:21:26;;;;;;;2.60;1.40;;;;;;;10.32;100.00;97695.25;7166663;40;20508;31
2023/12/12 21:27:03;;;;;;;2.20;1.10;;;;;;;10.35;100.00;97689.47;7146351;40;20258;31
2023/12/12 21:32:40;;;;;;;3.30;1.45;;;;;;;10.30;100.00;97681.16;7155926;40;20246;31
2023/12/12 21:38:14;;;;;;;3.27;1.70;;;;;;;10.37;100.00;97693.63;7159601;40;20381;31
2023/12/12 21:43:35;;;;;;;3.97;1.70;;;;;;;10.39;100.00;97685.34;7188517;40;20243;31
2023/12/12 21:49:12;;;;;;;4.40;1.60;;;;;;;10.36;100.00;97678.47;7212536;40;20258;31
2023/12/12 21:54:31;;;;;;;5.67;1.97;;;;;;;10.37;100.00;97690.09;7224869;40;20242;31
2023/12/12 22:00:05;;;;;;;3.80;1.40;;;;;;;10.33;100.00;97681.59;7276773;40;20312;31
2023/12/12 22:05:43;;;;;;;6.50;1.55;;;;;;;10.34;100.00;97687.81;7196048;40;20232;31
2023/12/12 22:11:01;;;;;;;5.47;1.40;;;;;;;10.40;100.00;97685.13;7196691;40;20254;31
2023/12/12 22:16:36;;;;;;;6.40;1.60;;;;;;;10.32;100.00;97701.47;7188660;40;20290;31
2023/12/12 22:22:09;;;;;;;5.23;1.73;;;;;;;10.30;100.00;97708.94;6996558;40;21265;31
2023/12/12 22:27:43;;;;;;;5.73;1.60;;;;;;;10.31;100.00;97715.97;7195474;40;20355;31
2023/12/12 22:33:20;;;;;;;4.90;1.40;;;;;;;10.33;100.00;97716.59;7176427;40;20262;31
2023/12/12 22:38:57;;;;;;;5.80;1.60;;;;;;;10.33;100.00;97719.28;7160334;40;20247;31
2023/12/12 22:44:14;;;;;;;5.93;1.30;;;;;;;10.33;100.00;97705.00;7069404;41;20261;31
2023/12/12 22:49:49;;;;;;;4.20;1.13;;;;;;;10.29;100.00;97709.97;7115384;40;20350;31
2023/12/12 22:55:26;;;;;;;2.77;1.40;;;;;;;10.29;100.00;97709.13;7124176;40;20243;31
2023/12/12 23:00:47;;;;;;;5.00;1.50;;;;;;;10.27;99.82;97703.09;7133273;40;20243;31
2023/12/12 23:06:23;;;;;;;4.03;1.47;;;;;;;10.24;100.00;97709.72;7185988;40;21343;31
2023/12/12 23:11:59;;;;;;;4.50;1.40;;;;;;;10.25;99.58;97708.69;7214694;40;20260;31
2023/12/12 23:17:19;;;;;;;5.63;1.47;;;;;;;10.25;99.66;97710.56;7224036;40;20591;31
2023/12/12 23:22:39;;;;;;;4.80;1.40;;;;;;;10.23;99.86;97715.31;7246401;40;20557;31
2023/12/12 23:33:20;;;;;;;5.60;1.63;;;;;;;10.19;99.25;97706.81;7226382;40;20251;31
2023/12/12 23:38:41;;;;;;;5.15;1.55;;;;;;;10.19;99.37;97695.19;7258477;40;20374;31
2023/12/12 23:44:01;;;;;;;4.87;1.53;;;;;;;10.16;99.83;97691.06;7216778;40;20379;31
2023/12/12 23:54:42;;;;;;;2.73;1.63;;;;;;;10.12;99.82;97688.94;7206648;40;20272;31
